sensor_id;sensor_type;location;lat;lon;timestamp;pressure;altitude;pressure_sealevel;temperature;humidity
40155;BME280;25875;48.202;16.334;2024-01-15T00:01:21;97771.25;;;-0.66;59.59
40155;BME280;25875;48.202;16.334;2024-01-15T00:03:47;97766.84;;;-0.64;59.73
40155;BME280;25875;48.202;16.334;2024-01-15T00:06:14;97764.25;;;-0.64;59.41
40155;BME280;25875;48.202;16.334;2024-01-15T00:08:42;97771.94;;;-0.61;59.32
40155;BME280;25875;48.202;16.334;2024-01-15T00:11:08;97760.63;;;-0.60;59.36
40155;BME280;25875;48.202;16.334;2024-01-15T00:13:35;97759.78;;;-0.61;59.29
40155;BME280;25875;48.202;16.334;2024-01-15T00:16:02;97752.81;;;-0.60;59.29
40155;BME280;25875;48.202;16.334;2024-01-15T00:18:29;97756.38;;;-0.63;59.47
40155;BME280;25875;48.202;16.334;2024-01-15T00:20:55;97753.88;;;-0.66;59.44
40155;BME280;25875;48.202;16.334;2024-01-15T00:23:22;97756.50;;;-0.66;59.46
40155;BME280;25875;48.202;16.334;2024-01-15T00:25:51;97719.09;;;-0.87;59.54
40155;BME280;25875;48.202;16.334;2024-01-15T00:28:18;97746.25;;;-0.71;59.64
40155;BME280;25875;48.202;16.334;2024-01-15T00:30:44;97743.59;;;-0.69;59.45
40155;BME280;25875;48.202;16.334;2024-01-15T00:33:11;97743.59;;;-0.69;59.47
40155;BME280;25875;48.202;16.334;2024-01-15T00:35:39;97743.59;;;-0.69;59.68
40155;BME280;25875;48.202;16.334;2024-01-15T00:38:07;97733.19;;;-0.69;59.98
40155;BME280;25875;48.202;16.334;2024-01-15T00:40:33;97729.72;;;-0.70;60.02
40155;BME280;25875;48.202;16.334;2024-01-15T00:43:02;97696.69;;;-0.91;60.22
40155;BME280;25875;48.202;16.334;2024-01-15T00:45:28;97733.19;;;-0.69;60.31
40155;BME280;25875;48.202;16.334;2024-01-15T00:47:55;97693.97;;;-0.88;60.26
40155;BME280;25875;48.202;16.334;2024-01-15T00:50:24;97732.38;;;-0.71;60.63
40155;BME280;25875;48.202;16.334;2024-01-15T00:52:51;97732.38;;;-0.71;60.52
40155;BME280;25875;48.202;16.334;2024-01-15T00:55:18;97738.50;;;-0.72;60.60
40155;BME280;25875;48.202;16.334;2024-01-15T00:57:44;97728.88;;;-0.70;60.23
40155;BME280;25875;48.202;16.334;2024-01-15T01:00:13;97733.28;;;-0.72;60.42
40155;BME280;25875;48.202;16.334;2024-01-15T01:02:40;97736.69;;;-0.70;60.21
40155;BME280;25875;48.202;16.334;2024-01-15T01:05:07;97726.22;;;-0.69;59.87
40155;BME280;25875;48.202;16.334;2024-01-15T01:07:34;97734.78;;;-0.65;59.77
40155;BME280;25875;48.202;16.334;2024-01-15T01:10:01;97723.47;;;-0.64;59.50
40155;BME280;25875;48.202;16.334;2024-01-15T01:12:27;97715.81;;;-0.69;59.42
40155;BME280;25875;48.202;16.334;2024-01-15T01:14:55;97715.72;;;-0.65;59.50
40155;BME280;25875;48.202;16.334;2024-01-15T01:17:23;97710.44;;;-0.64;59.43
40155;BME280;25875;48.202;16.334;2024-01-15T01:19:50;97707.97;;;-0.67;59.27
40155;BME280;25875;48.202;16.334;2024-01-15T01:22:17;97708.81;;;-0.66;59.37
40155;BME280;25875;48.202;16.334;2024-01-15T01:24:43;97714.91;;;-0.68;59.41
40155;BME280;25875;48.202;16.334;2024-01-15T01:27:10;97705.41;;;-0.69;59.23
40155;BME280;25875;48.202;16.334;2024-01-15T01:29:36;97709.72;;;-0.68;59.18
40155;BME280;25875;48.202;16.334;2024-01-15T01:32:03;97710.63;;;-0.69;59.37
40155;BME280;25875;48.202;16.334;2024-01-15T01:34:32;97712.38;;;-0.69;59.70
40155;BME280;25875;48.202;16.334;2024-01-15T01:36:59;97674.13;;;-0.90;59.49
40155;BME280;25875;48.202;16.334;2024-01-15T01:39:26;97702.81;;;-0.69;59.70
40155;BME280;25875;48.202;16.334;2024-01-15T01:41:53;97701.97;;;-0.69;59.68
40155;BME280;25875;48.202;16.334;2024-01-15T01:44:20;97702.06;;;-0.72;59.71
40155;BME280;25875;48.202;16.334;2024-01-15T01:46:46;97699.53;;;-0.74;59.92
40155;BME280;25875;48.202;16.334;2024-01-15T01:49:13;97694.31;;;-0.74;59.81
40155;BME280;25875;48.202;16.334;2024-01-15T01:51:41;97679.63;;;-0.75;59.73
40155;BME280;25875;48.202;16.334;2024-01-15T01:54:08;97666.44;;;-0.70;59.25
40155;BME280;25875;48.202;16.334;2024-01-15T01:56:38;97670.75;;;-0.69;58.93
40155;BME280;25875;48.202;16.334;2024-01-15T01:59:05;97665.53;;;-0.69;59.00
40155;BME280;25875;48.202;16.334;2024-01-15T02:01:34;97653.44;;;-0.70;58.97
40155;BME280;25875;48.202;16.334;2024-01-15T02:04:00;97657.91;;;-0.74;58.93
40155;BME280;25875;48.202;16.334;2024-01-15T02:06:28;97640.53;;;-0.73;58.82
40155;BME280;25875;48.202;16.334;2024-01-15T02:08:56;97650.34;;;-0.80;58.71
40155;BME280;25875;48.202;16.334;2024-01-15T02:11:23;97639.81;;;-0.77;58.93
40155;BME280;25875;48.202;16.334;2024-01-15T02:13:50;97637.28;;;-0.78;58.77
40155;BME280;25875;48.202;16.334;2024-01-15T02:16:17;97643.38;;;-0.79;58.32
40155;BME280;25875;48.202;16.334;2024-01-15T02:18:45;97647.56;;;-0.75;58.41
40155;BME280;25875;48.202;16.334;2024-01-15T02:21:12;97641.56;;;-0.77;58.46
40155;BME280;25875;48.202;16.334;2024-01-15T02:23:40;97643.50;;;-0.82;58.28
40155;BME280;25875;48.202;16.334;2024-01-15T02:26:07;97661.75;;;-0.84;58.29
40155;BME280;25875;48.202;16.334;2024-01-15T02:28:34;97656.56;;;-0.84;58.08
40155;BME280;25875;48.202;16.334;2024-01-15T02:31:01;97644.44;;;-0.85;57.76
40155;BME280;25875;48.202;16.334;2024-01-15T02:33:28;97635.78;;;-0.85;57.64
40155;BME280;25875;48.202;16.334;2024-01-15T02:35:54;97643.59;;;-0.85;57.69
40155;BME280;25875;48.202;16.334;2024-01-15T02:38:21;97640.09;;;-0.84;58.03
40155;BME280;25875;48.202;16.334;2024-01-15T02:40:49;97549.59;;;-1.46;57.77
40155;BME280;25875;48.202;16.334;2024-01-15T02:43:16;97641.78;;;-0.83;57.88
40155;BME280;25875;48.202;16.334;2024-01-15T02:45:44;97639.94;;;-0.80;57.78
40155;BME280;25875;48.202;16.334;2024-01-15T02:48:11;97647.66;;;-0.78;57.63
40155;BME280;25875;48.202;16.334;2024-01-15T02:50:37;97640.66;;;-0.76;57.22
40155;BME280;25875;48.202;16.334;2024-01-15T02:53:05;97633.75;;;-0.77;57.55
40155;BME280;25875;48.202;16.334;2024-01-15T02:55:31;97640.59;;;-0.75;57.29
40155;BME280;25875;48.202;16.334;2024-01-15T02:57:59;97622.34;;;-0.73;57.38
40155;BME280;25875;48.202;16.334;2024-01-15T03:00:26;97636.19;;;-0.73;57.45
40155;BME280;25875;48.202;16.334;2024-01-15T03:02:54;97637.81;;;-0.70;57.15
40155;BME280;25875;48.202;16.334;2024-01-15T03:05:21;97652.59;;;-0.71;57.41
40155;BME280;25875;48.202;16.334;2024-01-15T03:07:47;97658.66;;;-0.70;57.13
40155;BME280;25875;48.202;16.334;2024-01-15T03:10:14;97663.78;;;-0.69;57.25
40155;BME280;25875;48.202;16.334;2024-01-15T03:12:40;97618.56;;;-0.88;57.39
40155;BME280;25875;48.202;16.334;2024-01-15T03:15:09;97671.53;;;-0.67;57.22
40155;BME280;25875;48.202;16.334;2024-01-15T03:17:36;97667.06;;;-0.63;57.21
40155;BME280;25875;48.202;16.334;2024-01-15T03:20:03;97675.84;;;-0.66;57.28
40155;BME280;25875;48.202;16.334;2024-01-15T03:22:29;97673.19;;;-0.64;57.37
40155;BME280;25875;48.202;16.334;2024-01-15T03:24:56;97661.00;;;-0.64;57.42
40155;BME280;25875;48.202;16.334;2024-01-15T03:27:23;97679.13;;;-0.61;57.33
40155;BME280;25875;48.202;16.334;2024-01-15T03:29:48;97699.94;;;-0.61;57.56
40155;BME280;25875;48.202;16.334;2024-01-15T03:32:16;97694.63;;;-0.58;57.56
40155;BME280;25875;48.202;16.334;2024-01-15T03:34:43;97702.47;;;-0.59;57.49
40155;BME280;25875;48.202;16.334;2024-01-15T03:37:09;97692.91;;;-0.59;57.39
40155;BME280;25875;48.202;16.334;2024-01-15T03:39:36;97695.47;;;-0.57;57.46
40155;BME280;25875;48.202;16.334;2024-01-15T03:42:03;97693.78;;;-0.58;57.77
40155;BME280;25875;48.202;16.334;2024-01-15T03:44:30;97696.31;;;-0.57;57.84
40155;BME280;25875;48.202;16.334;2024-01-15T03:46:56;97704.97;;;-0.56;57.89
40155;BME280;25875;48.202;16.334;2024-01-15T03:49:24;97702.41;;;-0.58;57.97
40155;BME280;25875;48.202;16.334;2024-01-15T03:51:51;97696.47;;;-0.61;58.12
40155;BME280;25875;48.202;16.334;2024-01-15T03:54:17;97708.75;;;-0.65;58.49
40155;BME280;25875;48.202;16.334;2024-01-15T03:56:44;97689.47;;;-0.59;58.47
40155;BME280;25875;48.202;16.334;2024-01-15T03:59:11;97693.03;;;-0.62;58.64
40155;BME280;25875;48.202;16.334;2024-01-15T04:01:37;97697.38;;;-0.62;58.65
40155;BME280;25875;48.202;16.334;2024-01-15T04:04:04;97681.03;;;-0.66;58.65
40155;BME280;25875;48.202;16.334;2024-01-15T04:06:32;97661.91;;;-0.65;58.68
40155;BME280;25875;48.202;16.334;2024-01-15T04:08:59;97652.38;;;-0.64;58.54
40155;BME280;25875;48.202;16.334;2024-01-15T04:11:25;97664.53;;;-0.65;58.69
40155;BME280;25875;48.202;16.334;2024-01-15T04:13:52;97612.44;;;-0.87;58.59
40155;BME280;25875;48.202;16.334;2024-01-15T04:16:19;97637.66;;;-0.65;58.66
40155;BME280;25875;48.202;16.334;2024-01-15T04:18:45;97638.50;;;-0.65;58.92
40155;BME280;25875;48.202;16.334;2024-01-15T04:21:12;97616.78;;;-0.64;58.78
40155;BME280;25875;48.202;16.334;2024-01-15T04:23:40;97624.53;;;-0.62;59.08
40155;BME280;25875;48.202;16.334;2024-01-15T04:26:07;97616.63;;;-0.59;59.24
40155;BME280;25875;48.202;16.334;2024-01-15T04:28:33;97625.25;;;-0.59;59.08
40155;BME280;25875;48.202;16.334;2024-01-15T04:31:00;97619.16;;;-0.58;59.27
40155;BME280;25875;48.202;16.334;2024-01-15T04:33:26;97619.03;;;-0.55;59.17
40155;BME280;25875;48.202;16.334;2024-01-15T04:35:53;97620.78;;;-0.55;59.36
40155;BME280;25875;48.202;16.334;2024-01-15T04:38:20;97633.91;;;-0.58;59.42
40155;BME280;25875;48.202;16.334;2024-01-15T04:40:48;97634.72;;;-0.56;59.59
40155;BME280;25875;48.202;16.334;2024-01-15T04:43:14;97649.34;;;-0.54;59.50
40155;BME280;25875;48.202;16.334;2024-01-15T04:45:41;97650.22;;;-0.53;59.55
40155;BME280;25875;48.202;16.334;2024-01-15T04:48:08;97634.72;;;-0.56;59.71
40155;BME280;25875;48.202;16.334;2024-01-15T04:50:34;97643.53;;;-0.60;60.01
40155;BME280;25875;48.202;16.334;2024-01-15T04:53:01;97620.97;;;-0.83;59.97
40155;BME280;25875;48.202;16.334;2024-01-15T04:55:27;97636.75;;;-0.64;59.88
40155;BME280;25875;48.202;16.334;2024-01-15T04:57:55;97683.75;;;-0.69;60.16
40155;BME280;25875;48.202;16.334;2024-01-15T05:00:22;97657.91;;;-0.74;60.25
40155;BME280;25875;48.202;16.334;2024-01-15T05:02:49;97670.84;;;-0.72;60.25
40155;BME280;25875;48.202;16.334;2024-01-15T05:05:15;97669.94;;;-0.71;60.14
40155;BME280;25875;48.202;16.334;2024-01-15T05:07:42;97680.53;;;-0.76;60.18
40155;BME280;25875;48.202;16.334;2024-01-15T05:10:09;97695.28;;;-0.76;60.32
40155;BME280;25875;48.202;16.334;2024-01-15T05:12:35;97692.69;;;-0.76;60.09
40155;BME280;25875;48.202;16.334;2024-01-15T05:15:04;97707.59;;;-0.81;60.12
40155;BME280;25875;48.202;16.334;2024-01-15T05:17:31;97699.88;;;-0.83;60.00
40155;BME280;25875;48.202;16.334;2024-01-15T05:19:58;97686.00;;;-0.83;59.91
40155;BME280;25875;48.202;16.334;2024-01-15T05:22:25;97674.66;;;-1.06;60.00
40155;BME280;25875;48.202;16.334;2024-01-15T05:24:51;97699.97;;;-0.86;59.82
40155;BME280;25875;48.202;16.334;2024-01-15T05:27:18;97659.94;;;-1.07;59.67
40155;BME280;25875;48.202;16.334;2024-01-15T05:29:44;97695.56;;;-0.84;59.61
40155;BME280;25875;48.202;16.334;2024-01-15T05:32:13;97700.03;;;-0.87;59.65
40155;BME280;25875;48.202;16.334;2024-01-15T05:34:40;97712.03;;;-0.83;59.32
40155;BME280;25875;48.202;16.334;2024-01-15T05:37:06;97704.28;;;-0.85;59.48
40155;BME280;25875;48.202;16.334;2024-01-15T05:39:33;97705.06;;;-0.83;59.45
40155;BME280;25875;48.202;16.334;2024-01-15T05:41:59;97673.59;;;-1.00;59.19
40155;BME280;25875;48.202;16.334;2024-01-15T05:44:26;97724.97;;;-0.82;59.27
40155;BME280;25875;48.202;16.334;2024-01-15T05:46:53;97704.31;;;-0.86;59.13
40155;BME280;25875;48.202;16.334;2024-01-15T05:49:21;97705.38;;;-0.92;59.36
40155;BME280;25875;48.202;16.334;2024-01-15T05:51:48;97716.53;;;-0.88;59.15
40155;BME280;25875;48.202;16.334;2024-01-15T05:54:14;97683.28;;;-1.05;59.33
40155;BME280;25875;48.202;16.334;2024-01-15T05:56:41;97734.69;;;-0.87;59.38
40155;BME280;25875;48.202;16.334;2024-01-15T05:59:08;97731.28;;;-0.89;59.24
40155;BME280;25875;48.202;16.334;2024-01-15T06:01:34;97733.88;;;-0.89;59.21
40155;BME280;25875;48.202;16.334;2024-01-15T06:04:01;97742.53;;;-0.88;59.43
40155;BME280;25875;48.202;16.334;2024-01-15T06:06:29;97742.44;;;-0.85;59.26
40155;BME280;25875;48.202;16.334;2024-01-15T06:08:56;97737.44;;;-0.91;59.74
40155;BME280;25875;48.202;16.334;2024-01-15T06:11:29;97700.91;;;-1.13;59.83
40155;BME280;25875;48.202;16.334;2024-01-15T06:13:56;97729.44;;;-0.85;59.78
40155;BME280;25875;48.202;16.334;2024-01-15T06:16:23;97736.53;;;-0.90;60.04
40155;BME280;25875;48.202;16.334;2024-01-15T06:18:50;97711.38;;;-0.90;60.11
40155;BME280;25875;48.202;16.334;2024-01-15T06:21:17;97735.66;;;-0.89;60.28
40155;BME280;25875;48.202;16.334;2024-01-15T06:23:45;97745.16;;;-0.88;60.37
40155;BME280;25875;48.202;16.334;2024-01-15T06:26:12;97728.59;;;-0.86;60.12
40155;BME280;25875;48.202;16.334;2024-01-15T06:28:38;97614.41;;;-1.67;60.29
40155;BME280;25875;48.202;16.334;2024-01-15T06:31:06;97724.22;;;-0.85;60.27
40155;BME280;25875;48.202;16.334;2024-01-15T06:33:32;97740.00;;;-0.90;60.50
40155;BME280;25875;48.202;16.334;2024-01-15T06:35:59;97726.03;;;-0.87;60.53
40155;BME280;25875;48.202;16.334;2024-01-15T06:38:26;97736.50;;;-0.89;60.70
40155;BME280;25875;48.202;16.334;2024-01-15T06:40:54;97746.16;;;-0.92;60.91
40155;BME280;25875;48.202;16.334;2024-01-15T06:43:20;97742.75;;;-0.94;60.74
40155;BME280;25875;48.202;16.334;2024-01-15T06:45:47;97757.41;;;-0.92;60.56
40155;BME280;25875;48.202;16.334;2024-01-15T06:48:14;97710.47;;;-1.14;60.68
40155;BME280;25875;48.202;16.334;2024-01-15T06:50:41;97757.47;;;-0.93;60.92
40155;BME280;25875;48.202;16.334;2024-01-15T06:53:08;97761.91;;;-0.97;61.04
40155;BME280;25875;48.202;16.334;2024-01-15T06:55:35;97757.50;;;-0.95;61.02
40155;BME280;25875;48.202;16.334;2024-01-15T06:58:03;97755.94;;;-1.01;61.04
40155;BME280;25875;48.202;16.334;2024-01-15T07:00:30;97769.84;;;-1.02;61.01
40155;BME280;25875;48.202;16.334;2024-01-15T07:02:56;97753.31;;;-0.99;60.79
40155;BME280;25875;48.202;16.334;2024-01-15T07:05:23;97766.31;;;-0.99;60.97
40155;BME280;25875;48.202;16.334;2024-01-15T07:07:52;97756.72;;;-0.97;60.60
40155;BME280;25875;48.202;16.334;2024-01-15T07:10:19;97765.38;;;-0.96;60.36
40155;BME280;25875;48.202;16.334;2024-01-15T07:12:45;97760.22;;;-0.98;60.50
40155;BME280;25875;48.202;16.334;2024-01-15T07:15:14;97586.50;;;-2.13;60.30
40155;BME280;25875;48.202;16.334;2024-01-15T07:17:41;97726.00;;;-1.12;60.14
40155;BME280;25875;48.202;16.334;2024-01-15T07:20:09;97766.13;;;-0.93;60.03
40155;BME280;25875;48.202;16.334;2024-01-15T07:22:36;97775.66;;;-0.93;59.79
40155;BME280;25875;48.202;16.334;2024-01-15T07:25:03;97769.56;;;-0.92;59.87
40155;BME280;25875;48.202;16.334;2024-01-15T07:27:32;97769.44;;;-0.89;59.71
40155;BME280;25875;48.202;16.334;2024-01-15T07:29:58;97771.94;;;-0.86;59.66
40155;BME280;25875;48.202;16.334;2024-01-15T07:32:26;97778.97;;;-0.88;59.74
40155;BME280;25875;48.202;16.334;2024-01-15T07:34:53;97773.66;;;-0.85;59.90
40155;BME280;25875;48.202;16.334;2024-01-15T07:37:20;97769.28;;;-0.85;59.79
40155;BME280;25875;48.202;16.334;2024-01-15T07:39:46;97787.44;;;-0.83;59.93
40155;BME280;25875;48.202;16.334;2024-01-15T07:42:13;97769.25;;;-0.83;59.61
40155;BME280;25875;48.202;16.334;2024-01-15T07:44:39;97776.09;;;-0.81;59.87
40155;BME280;25875;48.202;16.334;2024-01-15T07:47:06;97782.88;;;-0.77;59.71
40155;BME280;25875;48.202;16.334;2024-01-15T07:49:35;97791.53;;;-0.76;59.70
40155;BME280;25875;48.202;16.334;2024-01-15T07:52:02;97800.19;;;-0.76;59.73
40155;BME280;25875;48.202;16.334;2024-01-15T07:54:30;97790.59;;;-0.74;59.63
40155;BME280;25875;48.202;16.334;2024-01-15T07:56:57;97787.88;;;-0.71;59.66
40155;BME280;25875;48.202;16.334;2024-01-15T07:59:24;97781.66;;;-0.66;59.72
40155;BME280;25875;48.202;16.334;2024-01-15T08:01:51;97652.47;;;-1.41;59.72
40155;BME280;25875;48.202;16.334;2024-01-15T08:04:19;97786.88;;;-0.66;59.77
40155;BME280;25875;48.202;16.334;2024-01-15T08:06:48;97785.97;;;-0.65;59.80
40155;BME280;25875;48.202;16.334;2024-01-15T08:09:15;97780.59;;;-0.61;59.67
40155;BME280;25875;48.202;16.334;2024-01-15T08:11:42;97770.19;;;-0.61;59.85
40155;BME280;25875;48.202;16.334;2024-01-15T08:14:10;97777.81;;;-0.56;59.76
40155;BME280;25875;48.202;16.334;2024-01-15T08:16:37;97771.78;;;-0.57;59.70
40155;BME280;25875;48.202;16.334;2024-01-15T08:19:04;97760.34;;;-0.53;59.68
40155;BME280;25875;48.202;16.334;2024-01-15T08:21:30;97761.16;;;-0.51;59.65
40155;BME280;25875;48.202;16.334;2024-01-15T08:23:59;97769.81;;;-0.50;59.45
40155;BME280;25875;48.202;16.334;2024-01-15T08:26:26;97784.50;;;-0.49;59.71
40155;BME280;25875;48.202;16.334;2024-01-15T08:28:52;97740.19;;;-0.71;59.59
40155;BME280;25875;48.202;16.334;2024-01-15T08:31:19;97773.94;;;-0.45;59.44
40155;BME280;25875;48.202;16.334;2024-01-15T08:33:46;97769.69;;;-0.47;59.69
40155;BME280;25875;48.202;16.334;2024-01-15T08:36:13;97769.53;;;-0.43;59.64
40155;BME280;25875;48.202;16.334;2024-01-15T08:38:39;97743.56;;;-0.44;59.41
40155;BME280;25875;48.202;16.334;2024-01-15T08:41:08;97754.53;;;-0.36;59.34
40155;BME280;25875;48.202;16.334;2024-01-15T08:43:34;97756.28;;;-0.37;59.25
40155;BME280;25875;48.202;16.334;2024-01-15T08:46:01;97742.09;;;-0.28;59.09
40155;BME280;25875;48.202;16.334;2024-01-15T08:48:28;97716.63;;;-0.43;59.03
40155;BME280;25875;48.202;16.334;2024-01-15T08:50:54;97753.72;;;-0.15;59.16
40155;BME280;25875;48.202;16.334;2024-01-15T08:53:22;97757.75;;;-0.06;59.00
40155;BME280;25875;48.202;16.334;2024-01-15T08:55:49;97762.50;;;0.06;59.03
40155;BME280;25875;48.202;16.334;2024-01-15T08:58:17;97761.09;;;0.19;58.72
40155;BME280;25875;48.202;16.334;2024-01-15T09:00:44;97761.34;;;0.35;58.36
40155;BME280;25875;48.202;16.334;2024-01-15T09:03:10;97773.28;;;0.41;57.80
40155;BME280;25875;48.202;16.334;2024-01-15T09:05:37;97776.13;;;0.56;57.69
40155;BME280;25875;48.202;16.334;2024-01-15T09:08:04;97773.41;;;0.59;57.63
40155;BME280;25875;48.202;16.334;2024-01-15T09:10:31;97776.88;;;0.60;57.26
40155;BME280;25875;48.202;16.334;2024-01-15T09:12:57;97767.41;;;0.57;57.08
40155;BME280;25875;48.202;16.334;2024-01-15T09:15:26;97739.53;;;0.38;57.24
40155;BME280;25875;48.202;16.334;2024-01-15T09:17:54;97753.34;;;0.61;57.05
40155;BME280;25875;48.202;16.334;2024-01-15T09:20:22;97673.75;;;-0.11;57.09
40155;BME280;25875;48.202;16.334;2024-01-15T09:22:49;97775.94;;;0.61;57.24
40155;BME280;25875;48.202;16.334;2024-01-15T09:25:16;97791.91;;;0.53;57.44
40155;BME280;25875;48.202;16.334;2024-01-15T09:27:43;97782.44;;;0.51;57.44
40155;BME280;25875;48.202;16.334;2024-01-15T09:30:10;97766.13;;;0.46;57.47
40155;BME280;25875;48.202;16.334;2024-01-15T09:32:38;97765.22;;;0.47;57.85
40155;BME280;25875;48.202;16.334;2024-01-15T09:35:06;97770.50;;;0.45;57.81
40155;BME280;25875;48.202;16.334;2024-01-15T09:37:32;97758.31;;;0.46;58.01
40155;BME280;25875;48.202;16.334;2024-01-15T09:39:59;97746.19;;;0.45;58.09
40155;BME280;25875;48.202;16.334;2024-01-15T09:42:26;97758.19;;;0.49;58.28
40155;BME280;25875;48.202;16.334;2024-01-15T09:44:53;97771.06;;;0.53;58.29
40155;BME280;25875;48.202;16.334;2024-01-15T09:47:20;97771.16;;;0.50;58.29
40155;BME280;25875;48.202;16.334;2024-01-15T09:49:49;97744.97;;;0.53;58.34
40155;BME280;25875;48.202;16.334;2024-01-15T09:52:18;97761.41;;;0.55;58.49
40155;BME280;25875;48.202;16.334;2024-01-15T09:54:46;97754.44;;;0.56;58.62
40155;BME280;25875;48.202;16.334;2024-01-15T09:57:12;97750.78;;;0.60;58.48
40155;BME280;25875;48.202;16.334;2024-01-15T09:59:41;97724.63;;;0.41;58.49
40155;BME280;25875;48.202;16.334;2024-01-15T10:02:10;97751.41;;;0.67;59.08
40155;BME280;25875;48.202;16.334;2024-01-15T10:04:42;97727.47;;;0.57;59.29
40155;BME280;25875;48.202;16.334;2024-01-15T10:07:14;97744.16;;;0.73;58.91
40155;BME280;25875;48.202;16.334;2024-01-15T10:09:41;97710.06;;;0.78;58.74
40155;BME280;25875;48.202;16.334;2024-01-15T10:12:09;97717.63;;;0.84;58.71
40155;BME280;25875;48.202;16.334;2024-01-15T10:14:36;97709.81;;;0.84;58.89
40155;BME280;25875;48.202;16.334;2024-01-15T10:17:12;97618.75;;;0.39;58.86
40155;BME280;25875;48.202;16.334;2024-01-15T10:19:38;97709.47;;;1.12;58.58
40155;BME280;25875;48.202;16.334;2024-01-15T10:22:07;97710.72;;;1.23;58.14
40155;BME280;25875;48.202;16.334;2024-01-15T10:24:36;97718.47;;;1.25;57.93
40155;BME280;25875;48.202;16.334;2024-01-15T10:27:06;97709.72;;;1.26;57.62
40155;BME280;25875;48.202;16.334;2024-01-15T10:29:33;97679.25;;;1.26;57.73
40155;BME280;25875;48.202;16.334;2024-01-15T10:32:00;97709.47;;;1.32;57.53
40155;BME280;25875;48.202;16.334;2024-01-15T10:34:27;97689.34;;;1.34;57.37
40155;BME280;25875;48.202;16.334;2024-01-15T10:36:54;97694.31;;;1.40;57.30
40155;BME280;25875;48.202;16.334;2024-01-15T10:39:22;97681.97;;;1.44;57.22
40155;BME280;25875;48.202;16.334;2024-01-15T10:41:50;97685.06;;;1.52;57.14
40155;BME280;25875;48.202;16.334;2024-01-15T10:44:17;97637.78;;;1.39;56.69
40155;BME280;25875;48.202;16.334;2024-01-15T10:46:45;97701.69;;;1.70;56.74
40155;BME280;25875;48.202;16.334;2024-01-15T10:49:12;97675.44;;;1.73;56.43
40155;BME280;25875;48.202;16.334;2024-01-15T10:51:39;97680.16;;;1.83;56.29
40155;BME280;25875;48.202;16.334;2024-01-15T10:54:09;97665.63;;;1.97;56.21
40155;BME280;25875;48.202;16.334;2024-01-15T10:56:37;97679.94;;;2.07;55.78
40155;BME280;25875;48.202;16.334;2024-01-15T10:59:05;97687.19;;;2.19;55.55
40155;BME280;25875;48.202;16.334;2024-01-15T11:01:33;97674.44;;;2.30;54.87
40155;BME280;25875;48.202;16.334;2024-01-15T11:04:00;97671.91;;;2.29;54.50
40155;BME280;25875;48.202;16.334;2024-01-15T11:06:28;97684.00;;;2.48;54.62
40155;BME280;25875;48.202;16.334;2024-01-15T11:09:07;97679.88;;;2.62;54.29
40155;BME280;25875;48.202;16.334;2024-01-15T11:11:35;97657.94;;;2.64;53.73
40155;BME280;25875;48.202;16.334;2024-01-15T11:14:02;97677.72;;;2.70;53.69
40155;BME280;25875;48.202;16.334;2024-01-15T11:16:53;97663.47;;;2.75;53.84
40155;BME280;25875;48.202;16.334;2024-01-15T11:19:21;97655.25;;;2.83;53.91
40155;BME280;25875;48.202;16.334;2024-01-15T11:21:48;97664.69;;;2.85;53.57
40155;BME280;25875;48.202;16.334;2024-01-15T11:24:39;97657.91;;;2.99;53.62
40155;BME280;25875;48.202;16.334;2024-01-15T11:27:06;97673.31;;;3.05;53.51
40155;BME280;25875;48.202;16.334;2024-01-15T11:29:34;97661.91;;;3.06;53.17
40155;BME280;25875;48.202;16.334;2024-01-15T11:32:04;97655.06;;;3.03;53.27
40155;BME280;25875;48.202;16.334;2024-01-15T11:34:54;97678.47;;;3.06;52.82
40155;BME280;25875;48.202;16.334;2024-01-15T11:37:24;97651.69;;;3.01;53.03
40155;BME280;25875;48.202;16.334;2024-01-15T11:39:54;97660.81;;;3.10;53.21
40155;BME280;25875;48.202;16.334;2024-01-15T11:42:22;97661.78;;;3.25;52.87
40155;BME280;25875;48.202;16.334;2024-01-15T11:44:49;97674.13;;;3.23;52.86
40155;BME280;25875;48.202;16.334;2024-01-15T11:47:33;97681.38;;;3.17;52.95
40155;BME280;25875;48.202;16.334;2024-01-15T11:50:06;97666.88;;;3.28;53.32
40155;BME280;25875;48.202;16.334;2024-01-15T11:52:34;97688.50;;;3.31;53.24
40155;BME280;25875;48.202;16.334;2024-01-15T11:55:10;97639.16;;;2.91;53.05
40155;BME280;25875;48.202;16.334;2024-01-15T11:57:41;97653.94;;;3.25;53.30
40155;BME280;25875;48.202;16.334;2024-01-15T12:00:11;97633.28;;;3.36;53.28
40155;BME280;25875;48.202;16.334;2024-01-15T12:02:39;97617.75;;;3.48;53.34
40155;BME280;25875;48.202;16.334;2024-01-15T12:05:07;97624.25;;;3.41;53.06
40155;BME280;25875;48.202;16.334;2024-01-15T12:07:34;97618.31;;;3.38;52.90
40155;BME280;25875;48.202;16.334;2024-01-15T12:10:01;97634.81;;;3.56;52.90
40155;BME280;25875;48.202;16.334;2024-01-15T12:12:35;97632.78;;;3.61;52.67
40155;BME280;25875;48.202;16.334;2024-01-15T12:15:04;97622.75;;;3.69;52.57
40155;BME280;25875;48.202;16.334;2024-01-15T12:17:31;97625.69;;;3.63;52.49
40155;BME280;25875;48.202;16.334;2024-01-15T12:19:59;97628.50;;;3.75;52.20
40155;BME280;25875;48.202;16.334;2024-01-15T12:22:26;97617.34;;;3.72;51.98
40155;BME280;25875;48.202;16.334;2024-01-15T12:24:53;97634.25;;;3.66;51.82
40155;BME280;25875;48.202;16.334;2024-01-15T12:27:20;97622.50;;;3.73;52.09
40155;BME280;25875;48.202;16.334;2024-01-15T12:29:47;97491.34;;;2.98;51.98
40155;BME280;25875;48.202;16.334;2024-01-15T12:32:14;97631.03;;;3.77;51.91
40155;BME280;25875;48.202;16.334;2024-01-15T12:34:41;97600.25;;;3.49;51.71
40155;BME280;25875;48.202;16.334;2024-01-15T12:37:09;97655.38;;;3.63;51.63
40155;BME280;25875;48.202;16.334;2024-01-15T12:39:37;97611.41;;;3.52;51.67
40155;BME280;25875;48.202;16.334;2024-01-15T12:42:04;97596.38;;;3.56;51.42
40155;BME280;25875;48.202;16.334;2024-01-15T12:44:32;97597.97;;;3.59;51.78
40155;BME280;25875;48.202;16.334;2024-01-15T12:46:58;97618.06;;;3.42;51.36
40155;BME280;25875;48.202;16.334;2024-01-15T12:49:25;97600.31;;;3.32;51.78
40155;BME280;25875;48.202;16.334;2024-01-15T12:51:56;97610.91;;;3.46;51.67
40155;BME280;25875;48.202;16.334;2024-01-15T12:54:24;97628.63;;;3.41;51.58